Time;durP1;ratioP1;P1;durP2;ratioP2;P2;SDS_P1;SDS_P2;PMS_P1;PMS_P2;Temp;Humidity;BMP_temperature;BMP_pressure;BME280_temperature;BME280_humidity;BME280_pressure;Samples;Min_cycle;Max_cycle;Signal;HPM_P1;HPM_P2
2023/01/06 00:00:19;;;;;;;3.38;1.60;;;;;;;-140.72;100.00;53159.97;5118912;27;20371;-75
2023/01/06 00:02:45;;;;;;;2.47;1.40;;;;;;;-140.72;100.00;53095.03;5115819;27;20067;-74
2023/01/06 00:05:11;;;;;;;3.08;1.52;;;;;;;-140.72;100.00;53133.59;5126196;27;20024;-75
2023/01/06 00:07:36;;;;;;;7.72;1.65;;;;;;;-140.72;100.00;53129.53;5120938;27;20038;-74
2023/01/06 00:10:02;;;;;;;2.70;1.02;;;;;;;-140.72;100.00;53066.63;5117943;27;20023;-74
2023/01/06 00:12:27;;;;;;;6.43;1.70;;;;;;;-140.72;100.00;53121.41;5120734;27;20035;-74
2023/01/06 00:14:54;;;;;;;2.00;1.63;;;;;;;-140.72;100.00;53129.53;5116168;27;20023;-75
2023/01/06 00:17:19;;;;;;;7.60;2.25;;;;;;;-140.72;100.00;53129.53;5123330;27;20046;-74
2023/01/06 00:19:45;;;;;;;2.67;1.73;;;;;;;-140.72;100.00;53121.41;5121962;27;20027;-75
2023/01/06 00:22:10;;;;;;;3.83;1.92;;;;;;;-140.72;100.00;53123.44;5121247;27;20019;-74
2023/01/06 00:24:39;;;;;;;2.40;1.60;;;;;;;-140.72;100.00;53131.56;5117816;27;20075;-74
2023/01/06 00:27:04;;;;;;;6.63;2.10;;;;;;;-140.72;100.00;53105.19;5120433;27;20028;-74
2023/01/06 00:29:33;;;;;;;4.97;1.55;;;;;;;-140.72;100.00;53125.47;5126391;27;20084;-75
2023/01/06 00:31:59;;;;;;;4.45;1.67;;;;;;;-140.72;100.00;53131.56;5119967;27;20019;-74
2023/01/06 00:34:30;;;;;;;2.53;1.13;;;;;;;-140.72;100.00;53086.91;5126637;27;20046;-74
2023/01/06 00:36:56;;;;;;;2.83;1.25;;;;;;;-140.72;100.00;53121.41;5123085;27;20019;-75
2023/01/06 00:39:22;;;;;;;6.22;2.13;;;;;;;-140.72;100.00;53135.63;5121684;27;20011;-76
2023/01/06 00:42:02;;;;;;;3.33;1.30;;;;;;;-140.72;100.00;53117.34;5118906;27;20047;-75
2023/01/06 00:44:32;;;;;;;1.75;1.27;;;;;;;-140.72;100.00;53113.28;5126663;27;20065;-74
2023/01/06 00:46:58;;;;;;;2.38;1.45;;;;;;;-140.72;100.00;53123.44;5122518;27;20019;-74
2023/01/06 00:49:23;;;;;;;2.20;1.30;;;;;;;-140.72;100.00;53090.97;5123259;27;20031;-75
2023/01/06 00:51:49;;;;;;;2.08;1.35;;;;;;;-140.72;100.00;53162.00;5117045;27;20094;-73
2023/01/06 00:54:15;;;;;;;6.57;1.88;;;;;;;-140.72;100.00;53129.53;5118386;27;20034;-75
2023/01/06 00:56:42;;;;;;;8.68;1.88;;;;;;;-140.72;100.00;53090.97;5122704;27;20019;-75
2023/01/06 00:59:09;;;;;;;1.60;1.00;;;;;;;-140.72;100.00;53066.63;5124438;27;20347;-75
2023/01/06 01:01:35;;;;;;;4.30;1.50;;;;;;;-140.72;100.00;53139.69;5121109;27;20023;-76
2023/01/06 01:04:01;;;;;;;3.30;1.63;;;;;;;-140.72;100.00;53137.66;5122450;27;20024;-75
2023/01/06 01:06:26;;;;;;;7.35;1.45;;;;;;;-140.72;100.00;53107.19;5116587;27;20031;-74
2023/01/06 01:08:54;;;;;;;6.90;1.67;;;;;;;-140.72;100.00;53117.34;5125844;27;20148;-75
2023/01/06 01:14:03;;;;;;;1.65;1.30;;;;;;;-140.72;100.00;53095.03;5117555;28;20039;-74
2023/01/06 01:16:28;;;;;;;2.15;1.40;;;;;;;-140.72;100.00;53133.59;5125579;28;20023;-75
2023/01/06 01:18:54;;;;;;;2.25;1.55;;;;;;;-140.72;100.00;53131.56;5124376;28;20029;-76
2023/01/06 01:21:19;;;;;;;3.22;1.83;;;;;;;-140.72;100.00;53084.88;5122252;28;20027;-76
2023/01/06 01:23:44;;;;;;;4.93;1.60;;;;;;;-140.72;100.00;53086.91;5116648;28;20152;-74
2023/01/06 01:26:10;;;;;;;2.35;1.23;;;;;;;-140.72;100.00;53131.56;5113820;28;20107;-75
2023/01/06 01:28:35;;;;;;;4.40;1.85;;;;;;;-140.72;100.00;53086.91;5121971;27;20119;-75
2023/01/06 01:31:02;;;;;;;2.60;1.63;;;;;;;-140.72;100.00;53111.25;5121466;28;20019;-74
2023/01/06 01:33:28;;;;;;;1.75;1.30;;;;;;;-140.72;100.00;53137.66;5119606;28;20526;-74
2023/01/06 01:35:54;;;;;;;4.35;1.45;;;;;;;-140.72;100.00;53109.22;5122965;28;20592;-74
2023/01/06 01:38:19;;;;;;;2.55;1.50;;;;;;;-140.72;100.00;53103.16;5120592;28;20023;-74
2023/01/06 01:40:49;;;;;;;1.88;1.30;;;;;;;-140.72;100.00;53149.81;5115817;28;20435;-75
2023/01/06 01:43:15;;;;;;;1.67;1.23;;;;;;;-140.72;100.00;53119.38;5119445;28;20028;-75
2023/01/06 01:45:44;;;;;;;1.95;1.45;;;;;;;-140.72;100.00;53147.78;5124978;28;20023;-75
2023/01/06 01:48:34;;;;;;;2.92;1.13;;;;;;;-140.72;100.00;53145.75;5124890;28;20080;-76
2023/01/06 01:51:01;;;;;;;;;;;;;;;-140.72;100.00;53109.22;5118258;28;20027;-76
2023/01/06 01:53:30;;;;;;;2.08;1.17;;;;;;;-140.72;100.00;53090.97;5116963;28;20006;-75
2023/01/06 01:55:59;;;;;;;2.80;1.17;;;;;;;-140.72;100.00;53129.53;5119280;28;20027;-75
2023/01/06 01:58:31;;;;;;;1.63;1.10;;;;;;;-140.72;100.00;53113.28;5122870;28;20019;-75
2023/01/06 02:00:56;;;;;;;0.93;0.80;;;;;;;-140.72;100.00;53123.44;5111143;27;20054;-75
2023/01/06 02:03:24;;;;;;;2.15;1.25;;;;;;;-140.72;100.00;53097.06;5117358;27;20601;-75
2023/01/06 02:05:56;;;;;;;2.22;0.60;;;;;;;-140.72;100.00;53066.63;5120692;27;20165;-75
2023/01/06 02:08:32;;;;;;;3.67;1.17;;;;;;;-140.72;100.00;53088.94;5123204;27;20030;-75
2023/01/06 02:10:57;;;;;;;2.22;0.80;;;;;;;-140.72;100.00;53133.59;5122757;27;20032;-78
2023/01/06 02:13:23;;;;;;;3.00;1.08;;;;;;;-140.72;100.00;53088.94;5118262;27;20028;-76
2023/01/06 02:15:55;;;;;;;1.00;0.60;;;;;;;-140.72;100.00;53117.34;5120518;27;20067;-76
2023/01/06 02:19:02;;;;;;;6.78;1.23;;;;;;;-140.72;100.00;53101.13;5124713;27;20020;-74
2023/01/06 02:21:59;;;;;;;7.03;1.20;;;;;;;-140.72;100.00;53078.78;5069616;28;20036;-75
2023/01/06 02:24:41;;;;;;;2.28;1.10;;;;;;;-140.72;100.00;53121.41;5118168;27;20034;-75
2023/01/06 02:27:24;;;;;;;2.28;1.02;;;;;;;-140.72;100.00;53131.56;5127549;27;20404;-75
2023/01/06 02:30:20;;;;;;;4.05;1.33;;;;;;;-140.72;100.00;53109.22;5120808;27;20423;-75
2023/01/06 02:33:06;;;;;;;1.92;1.27;;;;;;;-140.72;100.00;53103.16;5126320;27;20142;-75
2023/01/06 02:35:46;;;;;;;5.40;0.88;;;;;;;-140.72;100.00;53125.47;5122763;27;20047;-76
2023/01/06 02:38:17;;;;;;;;;;;;;;;-140.72;100.00;53113.28;5124096;27;20023;-76
2023/01/06 02:40:58;;;;;;;0.88;0.55;;;;;;;-140.72;100.00;53068.66;5126013;27;20370;-75
2023/01/06 02:43:45;;;;;;;2.00;1.00;;;;;;;-140.72;100.00;53093.00;5124311;27;20043;-75
2023/01/06 02:46:25;;;;;;;2.10;0.70;;;;;;;-140.72;100.00;53105.19;5123968;27;20135;-76
2023/01/06 02:48:59;;;;;;;1.80;0.70;;;;;;;-140.72;100.00;53107.19;5117730;27;20034;-74
2023/01/06 02:51:41;;;;;;;1.08;0.50;;;;;;;-140.72;100.00;53113.28;5128085;27;20019;-75
2023/01/06 02:54:34;;;;;;;2.47;0.73;;;;;;;-140.72;100.00;53080.81;5124603;27;20034;-75
2023/01/06 02:57:12;;;;;;;3.42;0.85;;;;;;;-140.72;100.00;53153.88;5118214;27;20501;-76
2023/01/06 02:59:47;;;;;;;2.50;0.82;;;;;;;-140.72;100.00;53123.44;5124308;27;20030;-75
2023/01/06 03:02:16;;;;;;;2.97;0.73;;;;;;;-140.72;100.00;53088.94;5127768;27;20039;-76
2023/01/06 03:04:45;;;;;;;2.17;0.70;;;;;;;-140.72;100.00;53139.69;5112513;27;20030;-76
2023/01/06 03:07:14;;;;;;;2.42;0.73;;;;;;;-140.72;100.00;53105.19;5124327;27;20031;-75
2023/01/06 03:09:40;;;;;;;0.77;0.47;;;;;;;-140.72;100.00;53105.19;5118922;27;20030;-77
2023/01/06 03:12:17;;;;;;;1.55;0.60;;;;;;;-140.72;100.00;53129.53;5127157;27;20019;-76
2023/01/06 03:14:50;;;;;;;3.67;0.77;;;;;;;-140.72;100.00;53093.00;5122417;27;20019;-76
2023/01/06 03:17:15;;;;;;;2.40;0.70;;;;;;;-140.72;100.00;53095.03;5119660;27;20046;-75
2023/01/06 03:19:42;;;;;;;2.28;0.85;;;;;;;-140.72;100.00;53093.00;5121446;27;20024;-73
2023/01/06 03:22:09;;;;;;;1.17;0.68;;;;;;;-140.72;100.00;53088.94;5116563;27;20019;-75
2023/01/06 03:24:37;;;;;;;1.58;0.47;;;;;;;-140.72;100.00;53080.81;5124258;27;20031;-74
2023/01/06 03:27:03;;;;;;;1.80;0.80;;;;;;;-140.72;100.00;53129.53;5117467;27;20523;-74
2023/01/06 03:29:33;;;;;;;2.00;0.43;;;;;;;-140.72;100.00;53093.00;5124283;27;20042;-75
2023/01/06 03:32:08;;;;;;;1.65;0.47;;;;;;;-140.72;100.00;53131.56;5121803;27;20114;-74
2023/01/06 03:34:54;;;;;;;2.45;0.80;;;;;;;-140.72;100.00;53109.22;5129978;27;20027;-75
2023/01/06 03:37:43;;;;;;;6.72;1.27;;;;;;;-140.72;100.00;53093.00;5122917;27;20055;-74
2023/01/06 03:40:11;;;;;;;3.05;0.80;;;;;;;-140.72;100.00;53084.88;5117854;27;20039;-75
2023/01/06 03:45:55;;;;;;;2.70;0.77;;;;;;;-140.72;100.00;53082.84;5126910;27;20087;-75
2023/01/06 03:48:49;;;;;;;3.17;0.90;;;;;;;-140.72;100.00;53101.13;5118246;27;20019;-74
2023/01/06 03:51:38;;;;;;;1.25;0.63;;;;;;;-140.72;100.00;53107.19;5105928;27;20036;-75
2023/01/06 03:54:39;;;;;;;1.48;0.57;;;;;;;-140.72;100.00;53084.88;5125306;27;20028;-74
2023/01/06 03:57:11;;;;;;;4.65;0.90;;;;;;;-140.72;100.00;53097.06;5119499;27;20027;-74
2023/01/06 03:59:43;;;;;;;2.03;0.40;;;;;;;-140.72;100.00;53088.94;5123852;27;20304;-74
2023/01/06 04:02:09;;;;;;;1.13;0.73;;;;;;;-140.72;100.00;53103.16;5121698;27;20015;-75
2023/01/06 04:04:36;;;;;;;2.42;0.80;;;;;;;-140.72;100.00;53095.03;5125250;27;20106;-75
2023/01/06 04:07:01;;;;;;;1.65;0.50;;;;;;;-140.72;100.00;53097.06;5114740;27;20031;-74
2023/01/06 04:09:27;;;;;;;4.03;0.57;;;;;;;-140.72;100.00;53078.78;5122036;27;20370;-75
2023/01/06 04:14:39;;;;;;;1.40;0.90;;;;;;;-140.72;100.00;53125.47;5121539;27;20042;-75
2023/01/06 04:17:05;;;;;;;1.33;0.75;;;;;;;-140.72;100.00;53105.19;5121216;27;20035;-73
2023/01/06 04:19:30;;;;;;;2.05;0.63;;;;;;;-140.72;100.00;53084.88;5122161;27;20033;-74
2023/01/06 04:21:56;;;;;;;2.83;1.13;;;;;;;-140.72;100.00;53157.94;5126122;27;20019;-73
2023/01/06 04:24:21;;;;;;;2.22;0.80;;;;;;;-140.72;100.00;53119.38;5117705;27;20088;-74
2023/01/06 04:26:46;;;;;;;1.05;0.50;;;;;;;-140.72;100.00;53115.31;5124440;27;20015;-76
2023/01/06 04:29:12;;;;;;;2.20;1.05;;;;;;;-140.72;100.00;53162.00;5120904;27;20116;-73
2023/01/06 04:31:37;;;;;;;1.10;0.30;;;;;;;-140.72;100.00;53129.53;5121946;27;20035;-75
2023/01/06 04:34:02;;;;;;;1.52;0.60;;;;;;;-140.72;100.00;53127.50;5119757;27;20146;-75
2023/01/06 04:36:29;;;;;;;1.52;0.75;;;;;;;-140.72;100.00;53131.56;5122563;27;20014;-75
2023/01/06 04:38:54;;;;;;;0.93;0.40;;;;;;;-140.72;100.00;53131.56;5120495;27;20019;-75
2023/01/06 04:41:20;;;;;;;1.58;0.68;;;;;;;-140.72;100.00;53090.97;5115343;27;20088;-76
2023/01/06 04:43:45;;;;;;;1.52;0.80;;;;;;;-140.72;100.00;53109.22;5120728;27;20638;-76
2023/01/06 04:46:10;;;;;;;3.05;1.08;;;;;;;-140.72;100.00;53105.19;5126270;27;20076;-75
2023/01/06 04:48:39;;;;;;;2.22;0.60;;;;;;;-140.72;100.00;53133.59;5116719;27;20023;-74
2023/01/06 04:51:07;;;;;;;1.40;0.70;;;;;;;-140.72;100.00;53097.06;5121727;27;20026;-75
2023/01/06 04:53:38;;;;;;;1.33;1.08;;;;;;;-140.72;100.00;53119.38;5120687;27;20026;-73
2023/01/06 04:56:05;;;;;;;1.70;0.68;;;;;;;-140.72;100.00;53125.47;5121163;27;20031;-74
2023/01/06 04:58:31;;;;;;;2.38;0.75;;;;;;;-140.72;100.00;53119.38;5112066;28;20012;-75
2023/01/06 05:01:08;;;;;;;2.08;0.70;;;;;;;-140.72;100.00;53080.81;5123279;27;20027;-73
2023/01/06 05:03:34;;;;;;;2.00;0.52;;;;;;;-140.72;100.00;53125.47;5120059;27;20026;-74
2023/01/06 05:06:10;;;;;;;1.98;1.10;;;;;;;-140.72;100.00;53121.41;5122346;27;20073;-74
2023/01/06 05:08:37;;;;;;;1.08;0.70;;;;;;;-140.72;100.00;53145.75;5112418;27;20081;-74
2023/01/06 05:11:15;;;;;;;1.27;0.82;;;;;;;-140.72;100.00;53115.31;5118400;27;20142;-74
2023/01/06 05:13:41;;;;;;;1.83;0.60;;;;;;;-140.72;100.00;53113.28;5110945;27;20032;-74
2023/01/06 05:16:17;;;;;;;1.13;0.85;;;;;;;-140.72;100.00;53097.06;5118827;28;20076;-74
2023/01/06 05:18:42;;;;;;;1.20;0.80;;;;;;;-140.72;100.00;53090.97;5118455;28;20454;-74
2023/01/06 05:21:08;;;;;;;4.63;0.82;;;;;;;-140.72;100.00;53141.69;5121254;28;20125;-76
2023/01/06 05:23:33;;;;;;;1.15;0.60;;;;;;;-140.72;100.00;53135.63;5116079;28;20022;-74
2023/01/06 05:25:58;;;;;;;0.85;0.60;;;;;;;-140.72;100.00;53113.28;5117362;28;20101;-74
2023/01/06 05:28:24;;;;;;;3.20;0.90;;;;;;;-140.72;100.00;53141.69;5118895;28;20084;-74
2023/01/06 05:30:49;;;;;;;2.60;0.70;;;;;;;-140.72;100.00;53145.75;5119777;28;20019;-76
2023/01/06 05:33:15;;;;;;;1.63;1.02;;;;;;;-140.72;100.00;53153.88;5115355;28;20043;-75
2023/01/06 05:35:40;;;;;;;1.27;0.70;;;;;;;-140.72;100.00;53117.34;5120601;28;20028;-75
2023/01/06 05:38:06;;;;;;;6.68;0.90;;;;;;;-140.72;100.00;53133.59;5121435;27;20031;-76
2023/01/06 05:40:33;;;;;;;0.68;0.60;;;;;;;-140.72;100.00;53168.09;5124414;27;20047;-74
2023/01/06 05:42:58;;;;;;;2.00;0.77;;;;;;;-140.72;100.00;53121.41;5122916;27;20093;-75
2023/01/06 05:45:24;;;;;;;2.28;0.90;;;;;;;-140.72;100.00;53145.75;5121384;27;20367;-75
2023/01/06 05:47:50;;;;;;;1.52;0.60;;;;;;;-140.72;100.00;53151.84;5123459;27;20019;-75
2023/01/06 05:50:15;;;;;;;1.60;1.00;;;;;;;-140.72;100.00;53162.00;5125161;27;20425;-75
2023/01/06 05:52:41;;;;;;;0.95;0.70;;;;;;;-140.72;100.00;53133.59;5120280;27;20023;-75
2023/01/06 05:55:07;;;;;;;4.35;1.00;;;;;;;-140.72;100.00;53162.00;5120776;27;20476;-75
2023/01/06 05:57:33;;;;;;;4.28;1.02;;;;;;;-140.72;100.00;53133.59;5120188;27;20033;-74
2023/01/06 05:59:59;;;;;;;1.75;0.93;;;;;;;-140.72;100.00;53131.56;5122308;27;20105;-74
2023/01/06 06:02:24;;;;;;;1.60;0.80;;;;;;;-140.72;100.00;53107.19;5117375;27;20102;-74
2023/01/06 06:04:50;;;;;;;1.05;0.70;;;;;;;-140.72;100.00;53176.22;5122039;27;20019;-76
2023/01/06 06:07:16;;;;;;;1.55;0.88;;;;;;;-140.72;100.00;53121.41;5118063;27;20289;-76
2023/01/06 06:09:42;;;;;;;1.90;0.90;;;;;;;-140.72;100.00;53133.59;5125280;27;20031;-74
2023/01/06 06:12:07;;;;;;;1.75;0.82;;;;;;;-140.72;100.00;53145.75;5119614;27;20114;-74
2023/01/06 06:14:33;;;;;;;1.70;1.00;;;;;;;-140.72;100.00;53147.78;5123958;27;20026;-75
2023/01/06 06:16:58;;;;;;;2.20;0.63;;;;;;;-140.72;100.00;53149.81;5117686;27;20344;-75
2023/01/06 06:19:23;;;;;;;2.63;0.90;;;;;;;-140.72;100.00;53121.41;5116834;27;20077;-73
2023/01/06 06:21:49;;;;;;;1.27;0.80;;;;;;;-140.72;100.00;53133.59;5122259;27;20015;-73
2023/01/06 06:24:14;;;;;;;1.55;0.93;;;;;;;-140.72;100.00;53141.69;5119580;27;20478;-74
2023/01/06 06:26:39;;;;;;;1.23;0.82;;;;;;;-140.72;100.00;53151.84;5120195;27;20043;-74
2023/01/06 06:29:06;;;;;;;1.27;0.88;;;;;;;-140.72;100.00;53129.53;5121702;27;20066;-73
2023/01/06 06:31:32;;;;;;;2.30;1.35;;;;;;;-140.72;100.00;53113.28;5119968;27;20075;-73
2023/01/06 06:33:59;;;;;;;2.15;0.95;;;;;;;-140.72;100.00;53123.44;5124101;27;20055;-74
2023/01/06 06:36:24;;;;;;;1.55;1.23;;;;;;;-140.72;100.00;53190.41;5117850;27;20368;-72
2023/01/06 06:38:51;;;;;;;2.50;0.95;;;;;;;-140.72;100.00;53176.22;5122440;27;20022;-73
2023/01/06 06:41:17;;;;;;;4.47;1.95;;;;;;;-140.72;100.00;53145.75;5123005;27;20411;-71
2023/01/06 06:43:43;;;;;;;2.38;1.20;;;;;;;-140.72;100.00;53125.47;5128648;27;20027;-73
2023/01/06 06:46:09;;;;;;;2.35;1.55;;;;;;;-140.72;100.00;53137.66;5120156;27;20023;-71
2023/01/06 06:48:35;;;;;;;1.75;1.10;;;;;;;-140.72;100.00;53157.94;5116486;27;20276;-71
2023/01/06 06:51:06;;;;;;;2.25;1.50;;;;;;;-140.72;100.00;53101.13;5122880;27;20023;-72
2023/01/06 06:53:33;;;;;;;1.85;1.38;;;;;;;-140.72;100.00;53125.47;5117454;27;20050;-71
2023/01/06 06:55:58;;;;;;;2.05;1.48;;;;;;;-140.72;100.00;53166.06;5123303;27;20027;-71
2023/01/06 06:58:24;;;;;;;3.72;2.53;;;;;;;-140.72;100.00;53168.09;5117286;27;20031;-71
2023/01/06 07:00:50;;;;;;;2.90;2.00;;;;;;;-140.72;100.00;53141.69;5120778;27;21093;-71
2023/01/06 07:03:15;;;;;;;2.30;1.73;;;;;;;-140.72;100.00;53141.69;5124039;27;20062;-70
2023/01/06 07:05:43;;;;;;;2.17;1.80;;;;;;;-140.72;100.00;53147.78;5117944;27;20431;-71
2023/01/06 07:08:09;;;;;;;1.98;1.45;;;;;;;-140.72;100.00;53127.50;5119944;27;20015;-74
2023/01/06 07:10:34;;;;;;;2.70;1.70;;;;;;;-140.72;100.00;53176.22;5120970;27;20368;-71
2023/01/06 07:12:59;;;;;;;2.58;1.63;;;;;;;-140.72;100.00;53129.53;5099853;28;20115;-74
2023/01/06 07:15:25;;;;;;;1.85;1.23;;;;;;;-140.72;100.00;53159.97;5123035;27;20046;-72
2023/01/06 07:17:50;;;;;;;2.85;1.40;;;;;;;-140.72;100.00;53149.81;5120393;27;20024;-71
2023/01/06 07:20:16;;;;;;;5.22;1.77;;;;;;;-140.72;100.00;53168.09;5118084;27;20063;-70
2023/01/06 07:22:41;;;;;;;2.05;0.80;;;;;;;-140.72;100.00;53151.84;5093371;28;20019;-72
2023/01/06 07:25:08;;;;;;;2.95;1.15;;;;;;;-140.72;100.00;53127.50;5120849;27;20067;-71
2023/01/06 07:27:35;;;;;;;5.57;1.23;;;;;;;-140.72;100.00;53125.47;5118919;27;20031;-72
2023/01/06 07:30:01;;;;;;;2.88;1.10;;;;;;;-140.72;100.00;53127.50;5117630;27;20024;-70
2023/01/06 07:32:26;;;;;;;2.30;0.85;;;;;;;-140.72;100.00;53155.91;5118452;27;20047;-71
2023/01/06 07:34:51;;;;;;;2.78;1.45;;;;;;;-140.72;100.00;53125.47;5115829;27;20023;-72
2023/01/06 07:37:17;;;;;;;3.88;1.05;;;;;;;-140.72;100.00;53125.47;5114665;27;20456;-72
2023/01/06 07:39:42;;;;;;;0.70;0.60;;;;;;;-140.72;100.00;53186.34;5115784;27;20801;-72
2023/01/06 07:42:08;;;;;;;6.72;1.08;;;;;;;-140.72;100.00;53129.53;5120875;27;20027;-73
2023/01/06 07:44:33;;;;;;;3.78;1.00;;;;;;;-140.72;100.00;53153.88;5119186;27;20130;-71
2023/01/06 07:46:59;;;;;;;2.80;1.45;;;;;;;-140.72;100.00;53168.09;5118078;27;20059;-71
2023/01/06 07:49:24;;;;;;;3.35;1.30;;;;;;;-140.72;100.00;53184.31;5118018;27;20053;-71
2023/01/06 07:51:50;;;;;;;8.93;2.50;;;;;;;-140.72;100.00;53182.28;5116341;27;20370;-71
2023/01/06 07:54:15;;;;;;;4.70;1.00;;;;;;;-140.72;100.00;53137.66;5118962;27;20576;-71
2023/01/06 07:56:42;;;;;;;3.75;1.40;;;;;;;-140.72;100.00;53168.09;5119605;27;20041;-74
2023/01/06 07:59:07;;;;;;;5.65;1.65;;;;;;;-140.72;100.00;53097.06;5116555;27;21284;-75
2023/01/06 08:01:33;;;;;;;4.03;1.77;;;;;;;-140.72;100.00;53143.72;5115231;27;20038;-75
2023/01/06 08:03:58;;;;;;;6.40;1.05;;;;;;;-140.72;100.00;53151.84;5120499;27;20055;-71
2023/01/06 08:06:23;;;;;;;7.18;1.88;;;;;;;-140.72;100.00;53147.78;5117698;27;20031;-71
2023/01/06 08:08:49;;;;;;;2.28;1.05;;;;;;;-140.72;100.00;53145.75;5119872;27;20447;-71
2023/01/06 08:11:14;;;;;;;8.05;1.50;;;;;;;-140.72;100.00;53157.94;5116823;27;20107;-71
2023/01/06 08:13:39;;;;;;;3.45;1.05;;;;;;;-140.72;100.00;53145.75;5112581;27;20383;-73
2023/01/06 08:16:09;;;;;;;7.68;1.33;;;;;;;-140.72;100.00;53182.28;5116954;27;20114;-72
2023/01/06 08:18:35;;;;;;;;;;;;;;;-140.72;100.00;53166.06;5117060;27;20344;-73
2023/01/06 08:21:01;;;;;;;7.28;1.38;;;;;;;-140.72;100.00;53157.94;5114235;27;19936;-71
2023/01/06 08:23:28;;;;;;;4.22;0.77;;;;;;;-140.72;100.00;53168.09;5110059;27;20023;-71
2023/01/06 08:26:01;;;;;;;7.18;1.20;;;;;;;-140.72;100.00;53123.44;5118421;27;20023;-74
2023/01/06 08:28:26;;;;;;;6.25;1.77;;;;;;;-140.72;100.00;53157.94;5122138;27;20019;-72
2023/01/06 08:30:55;;;;;;;6.68;1.00;;;;;;;-140.72;100.00;53168.09;5122175;27;20107;-72
2023/01/06 08:33:22;;;;;;;4.25;0.98;;;;;;;-140.72;100.00;53190.41;5117966;27;20089;-73
2023/01/06 08:35:52;;;;;;;2.35;0.63;;;;;;;-140.72;100.00;53153.88;5120895;27;20126;-72
2023/01/06 08:38:17;;;;;;;9.47;1.27;;;;;;;-140.72;100.00;53186.34;5116090;27;20051;-72
2023/01/06 08:40:43;;;;;;;5.00;1.38;;;;;;;-140.72;100.00;53190.41;5123329;27;20367;-74
2023/01/06 08:43:08;;;;;;;8.73;0.88;;;;;;;-140.72;100.00;53125.47;5119918;27;20023;-72
2023/01/06 08:45:38;;;;;;;7.45;1.35;;;;;;;-140.72;100.00;53180.25;5120684;27;20019;-71
2023/01/06 08:48:03;;;;;;;1.73;0.45;;;;;;;-140.72;100.00;53198.53;5120892;27;20092;-73
2023/01/06 08:50:29;;;;;;;2.65;1.00;;;;;;;-140.72;100.00;53162.00;5116259;27;20404;-72
2023/01/06 08:52:54;;;;;;;4.88;1.38;;;;;;;-140.72;100.00;53157.94;5120840;27;20141;-72
2023/01/06 08:55:20;;;;;;;3.83;0.93;;;;;;;-140.72;100.00;53162.00;5118817;27;20029;-71
2023/01/06 08:57:46;;;;;;;9.68;1.42;;;;;;;-140.72;100.00;53174.19;5116314;27;20442;-73
2023/01/06 09:00:15;;;;;;;4.93;1.00;;;;;;;-140.72;100.00;53180.25;5120451;27;20028;-73
2023/01/06 09:02:40;;;;;;;3.45;1.05;;;;;;;-140.72;100.00;53149.81;5116477;27;20025;-74
2023/01/06 09:05:06;;;;;;;4.05;1.33;;;;;;;-140.72;100.00;53157.94;5118033;27;20109;-70
2023/01/06 09:07:31;;;;;;;4.53;1.27;;;;;;;-140.72;100.00;53170.13;5124253;27;20019;-70
2023/01/06 09:09:56;;;;;;;7.43;1.50;;;;;;;-140.72;100.00;53180.25;5108854;27;20417;-74
2023/01/06 09:12:22;;;;;;;3.80;0.70;;;;;;;-140.72;100.00;53147.78;5116821;27;20026;-73
2023/01/06 09:14:48;;;;;;;1.38;0.55;;;;;;;-140.72;100.00;53166.06;5120272;27;20035;-71
2023/01/06 09:17:13;;;;;;;4.72;0.63;;;;;;;-140.72;100.00;53182.28;5116917;27;20074;-73
2023/01/06 09:19:39;;;;;;;3.35;1.27;;;;;;;-140.72;100.00;53133.59;5120045;28;20055;-71
2023/01/06 09:22:06;;;;;;;6.68;1.02;;;;;;;-140.72;100.00;53149.81;5116258;28;20034;-72
2023/01/06 09:24:31;;;;;;;2.08;0.70;;;;;;;-140.72;100.00;53180.25;5116305;28;20455;-72
2023/01/06 09:26:56;;;;;;;1.88;0.60;;;;;;;-140.72;100.00;53141.69;5120587;28;20018;-73
2023/01/06 09:29:22;;;;;;;4.13;0.85;;;;;;;-140.72;100.00;53131.56;5117449;28;20064;-73
2023/01/06 09:31:48;;;;;;;1.80;0.32;;;;;;;-140.72;100.00;53141.69;5117541;28;20042;-72
2023/01/06 09:34:13;;;;;;;3.85;1.30;;;;;;;-140.72;100.00;53149.81;5116109;28;20036;-70
2023/01/06 09:36:39;;;;;;;5.90;0.90;;;;;;;-140.72;100.00;53151.84;5111671;28;20529;-73
2023/01/06 09:39:04;;;;;;;1.63;0.70;;;;;;;-140.72;100.00;53186.34;5116205;28;20486;-72
2023/01/06 09:41:29;;;;;;;2.38;0.65;;;;;;;-140.72;100.00;53129.53;5118250;28;20162;-74
2023/01/06 09:44:15;;;;;;;2.05;0.38;;;;;;;-140.72;100.00;53117.34;5116959;28;20023;-72
2023/01/06 09:46:44;;;;;;;4.43;0.70;;;;;;;-140.72;100.00;53147.78;5114516;28;20065;-72
2023/01/06 09:49:39;;;;;;;5.68;0.80;;;;;;;-140.72;100.00;53088.94;5120164;28;20019;-70
2023/01/06 09:52:13;;;;;;;3.13;0.88;;;;;;;-140.72;100.00;53137.66;5113736;28;20073;-71
2023/01/06 09:54:46;;;;;;;6.35;0.85;;;;;;;-140.72;100.00;53113.28;5115410;28;20170;-71
2023/01/06 09:57:16;;;;;;;6.43;0.70;;;;;;;-140.72;100.00;53127.50;5118821;28;20035;-71
2023/01/06 09:59:42;;;;;;;2.50;0.85;;;;;;;-140.72;100.00;53172.16;5114692;28;20030;-73
2023/01/06 10:02:38;;;;;;;0.40;0.20;;;;;;;-140.72;100.00;53117.34;5119869;28;20035;-72
2023/01/06 10:05:22;;;;;;;1.27;0.25;;;;;;;-140.72;100.00;53131.56;5118753;28;20043;-73
2023/01/06 10:08:25;;;;;;;2.08;0.52;;;;;;;-140.72;100.00;53123.44;5116229;28;20026;-73
2023/01/06 10:11:25;;;;;;;3.63;0.77;;;;;;;-140.72;100.00;53125.47;5117224;28;20031;-73
2023/01/06 10:14:37;;;;;;;0.35;0.20;;;;;;;-140.72;100.00;53135.63;5113894;28;20081;-72
2023/01/06 10:17:11;;;;;;;2.63;0.70;;;;;;;-140.72;100.00;53133.59;5108151;28;20024;-74
2023/01/06 10:19:58;;;;;;;2.65;0.68;;;;;;;-140.72;100.00;53147.78;5111332;28;20032;-70
2023/01/06 10:22:26;;;;;;;5.47;0.47;;;;;;;-140.72;100.00;53070.69;5112258;27;20191;-72
2023/01/06 10:25:05;;;;;;;1.75;0.88;;;;;;;-140.72;100.00;53121.41;5125004;27;20027;-72
2023/01/06 10:27:44;;;;;;;3.10;0.93;;;;;;;-140.72;100.00;53117.34;5122390;27;20106;-72
2023/01/06 10:30:21;;;;;;;5.85;0.95;;;;;;;-140.72;100.00;53090.97;5117222;27;20292;-72
2023/01/06 10:32:48;;;;;;;2.22;0.60;;;;;;;-140.72;100.00;53109.22;5125026;27;20364;-71
2023/01/06 10:35:16;;;;;;;1.00;0.40;;;;;;;-140.72;100.00;53086.91;5117836;27;20439;-71
2023/01/06 10:37:45;;;;;;;1.90;0.70;;;;;;;-140.72;100.00;53095.03;5121953;27;20023;-72
2023/01/06 10:40:18;;;;;;;7.28;0.82;;;;;;;-140.72;100.00;53052.41;5121009;27;20126;-73
2023/01/06 10:42:54;;;;;;;1.60;0.45;;;;;;;-140.72;100.00;53093.00;5119172;27;20035;-72
2023/01/06 10:45:31;;;;;;;1.55;0.35;;;;;;;-140.72;100.00;53072.69;5115577;27;20182;-73
2023/01/06 10:47:57;;;;;;;0.98;0.30;;;;;;;-140.72;100.00;53088.94;5116277;27;20023;-71
2023/01/06 10:50:23;;;;;;;4.82;0.70;;;;;;;-140.72;100.00;53064.59;5116031;27;20380;-71
2023/01/06 10:52:49;;;;;;;3.50;0.65;;;;;;;-140.72;100.00;53068.66;5116403;27;20031;-73
2023/01/06 10:55:53;;;;;;;3.33;0.90;;;;;;;-140.72;100.00;53050.38;5115355;27;20035;-75
2023/01/06 10:58:19;;;;;;;4.53;1.00;;;;;;;-140.72;100.00;53026.03;5125916;27;20474;-73
2023/01/06 11:01:14;;;;;;;1.83;0.90;;;;;;;-140.72;100.00;53088.94;5123711;27;20023;-72
2023/01/06 11:03:44;;;;;;;3.25;0.82;;;;;;;-140.72;100.00;53062.56;5117586;27;20026;-72
2023/01/06 11:06:28;;;;;;;4.80;0.75;;;;;;;-140.72;100.00;53060.53;5116338;27;20044;-73
2023/01/06 11:08:54;;;;;;;1.92;0.77;;;;;;;-140.72;100.00;53093.00;5121958;27;20384;-72
2023/01/06 11:11:19;;;;;;;0.63;0.40;;;;;;;-140.72;100.00;53036.16;5114086;27;20015;-73
2023/01/06 11:13:49;;;;;;;3.92;1.00;;;;;;;-140.72;100.00;53056.47;5120251;27;20161;-72
2023/01/06 11:16:35;;;;;;;3.88;0.65;;;;;;;-140.72;100.00;53097.06;5119663;27;20460;-75
2023/01/06 11:19:06;;;;;;;0.75;0.30;;;;;;;-140.72;100.00;53030.09;5121328;27;20034;-75
2023/01/06 11:21:44;;;;;;;3.15;0.30;;;;;;;-140.72;100.00;53040.22;5126807;27;20028;-72
2023/01/06 11:24:21;;;;;;;5.82;1.15;;;;;;;-140.72;100.00;53064.59;5115380;27;20032;-74
2023/01/06 11:26:52;;;;;;;1.38;0.45;;;;;;;-140.72;100.00;53009.78;5118458;27;20164;-73
2023/01/06 11:29:24;;;;;;;4.43;0.52;;;;;;;-140.72;100.00;53107.19;5119056;27;20027;-73